createdAt,value
2018-12-20T00:00:49.853Z,101233.52
2018-12-20T00:03:18.183Z,101230.43
2018-12-20T00:05:46.422Z,101229.27
2018-12-20T00:08:14.907Z,101231.58
2018-12-20T00:10:43.278Z,101232.55
2018-12-20T00:13:11.689Z,101227.31
2018-12-20T00:15:40.177Z,101223.41
2018-12-20T00:18:08.628Z,101211.30
2018-12-20T00:20:36.947Z,101211.11
2018-12-20T00:23:05.217Z,101210.30
2018-12-20T00:25:33.700Z,101209.66
2018-12-20T00:28:02.263Z,101209.19
2018-12-20T00:30:30.517Z,101209.69
2018-12-20T00:32:58.798Z,101210.48
2018-12-20T00:35:27.396Z,101214.06
2018-12-20T00:37:55.862Z,101216.21
2018-12-20T00:40:24.399Z,101211.80
2018-12-20T00:42:52.682Z,101203.30
2018-12-20T00:45:20.970Z,101206.08
2018-12-20T00:47:49.678Z,101205.59
2018-12-20T00:50:18.109Z,101206.89
2018-12-20T00:52:46.500Z,101202.77
2018-12-20T00:55:14.891Z,101208.81
2018-12-20T00:57:43.285Z,101210.32
2018-12-20T01:00:11.890Z,101206.40
2018-12-20T01:02:40.321Z,101212.28
2018-12-20T01:05:08.750Z,101213.58
2018-12-20T01:07:37.084Z,101212.28
2018-12-20T01:10:05.605Z,101214.75
2018-12-20T01:12:34.255Z,101209.35
2018-12-20T01:15:02.652Z,101223.09
2018-12-20T01:17:36.482Z,101221.27
2018-12-20T01:20:05.095Z,101219.81
2018-12-20T01:22:33.354Z,101221.29
2018-12-20T01:25:01.789Z,101225.03
2018-12-20T01:27:30.085Z,101222.09
2018-12-20T01:29:58.362Z,101229.13
2018-12-20T01:32:26.862Z,101234.69
2018-12-20T01:34:55.290Z,101227.67
2018-12-20T01:37:23.783Z,101230.58
2018-12-20T01:39:52.117Z,101228.80
2018-12-20T01:42:20.510Z,101242.20
2018-12-20T01:44:53.479Z,101243.98
2018-12-20T01:47:19.186Z,101240.07
2018-12-20T01:49:47.509Z,101230.75
2018-12-20T01:52:15.888Z,101222.59
2018-12-20T01:54:44.237Z,101224.23
2018-12-20T01:57:12.662Z,101233.86
2018-12-20T01:59:41.168Z,101229.31
2018-12-20T02:02:09.648Z,101243.83
2018-12-20T02:04:37.998Z,101236.65
2018-12-20T02:07:06.401Z,101243.83
2018-12-20T02:09:34.799Z,101236.48
2018-12-20T02:12:03.335Z,101238.78
2018-12-20T02:14:31.663Z,101243.36
2018-12-20T02:17:00.056Z,101239.09
2018-12-20T02:19:28.412Z,101241.89
2018-12-20T02:24:50.152Z,101239.91
2018-12-20T02:27:18.698Z,101232.23
2018-12-20T02:29:47.166Z,101233.53
2018-12-20T02:32:15.571Z,101226.37
2018-12-20T02:34:43.868Z,101227.19
2018-12-20T02:37:12.231Z,101224.72
2018-12-20T02:39:40.588Z,101228.50
2018-12-20T02:42:09.001Z,101225.54
2018-12-20T02:44:37.437Z,101212.63
2018-12-20T02:47:05.823Z,101219.02
2018-12-20T02:49:34.219Z,101209.69
2018-12-20T02:52:02.671Z,101206.12
2018-12-20T02:54:30.932Z,101206.76
2018-12-20T02:56:59.343Z,101203.99
2018-12-20T02:59:27.772Z,101205.63
2018-12-20T03:01:56.092Z,101204.65
2018-12-20T03:04:24.692Z,101204.15
2018-12-20T03:06:53.168Z,101193.69
2018-12-20T03:09:21.451Z,101202.02
2018-12-20T03:11:49.763Z,101195.81
2018-12-20T03:14:18.183Z,101190.92
2018-12-20T03:16:46.415Z,101186.67
2018-12-20T03:19:14.669Z,101192.89
2018-12-20T03:21:43.090Z,101194.69
2018-12-20T03:24:11.593Z,101197.95
2018-12-20T03:26:40.076Z,101194.34
2018-12-20T03:29:08.600Z,101182.75
2018-12-20T03:31:37.174Z,101181.44
2018-12-20T03:34:05.573Z,101185.04
2018-12-20T03:36:33.904Z,101176.53
2018-12-20T03:39:02.198Z,101181.94
2018-12-20T03:41:30.564Z,101182.59
2018-12-20T03:43:58.858Z,101191.73
2018-12-20T03:46:27.395Z,101189.14
2018-12-20T03:48:55.797Z,101188.14
2018-12-20T03:51:24.622Z,101197.61
2018-12-20T03:53:53.135Z,101198.92
2018-12-20T03:56:21.634Z,101197.13
2018-12-20T03:58:49.859Z,101206.28
2018-12-20T04:01:18.341Z,101201.36
2018-12-20T04:03:46.762Z,101209.05
2018-12-20T04:06:15.145Z,101213.62
2018-12-20T04:08:43.501Z,101200.39
2018-12-20T04:11:12.026Z,101200.56
2018-12-20T04:13:40.442Z,101207.08
2018-12-20T04:16:08.895Z,101205.12
2018-12-20T04:18:37.331Z,101207.08
2018-12-20T04:21:05.582Z,101202.36
2018-12-20T04:23:33.931Z,101199.09
2018-12-20T04:26:02.206Z,101186.52
2018-12-20T04:28:30.458Z,101185.53
2018-12-20T04:30:58.914Z,101185.87
2018-12-20T04:33:27.524Z,101195.65
2018-12-20T04:35:55.977Z,101192.40
2018-12-20T04:38:24.491Z,101190.11
2018-12-20T04:40:52.853Z,101189.44
2018-12-20T04:43:28.036Z,101188.31
2018-12-20T04:45:56.323Z,101186.50
2018-12-20T04:48:24.799Z,101178.02
2018-12-20T04:50:53.428Z,101178.34
2018-12-20T04:53:21.960Z,101180.48
2018-12-20T04:55:50.511Z,101180.14
2018-12-20T04:58:18.897Z,101178.34
2018-12-20T05:00:47.299Z,101182.91
2018-12-20T05:03:15.693Z,101184.70
2018-12-20T05:05:44.399Z,101173.78
2018-12-20T05:08:12.862Z,101178.34
2018-12-20T05:10:41.147Z,101173.95
2018-12-20T05:13:09.417Z,101176.37
2018-12-20T05:15:37.741Z,101183.73
2018-12-20T05:18:06.040Z,101189.12
2018-12-20T05:20:34.543Z,101179.81
2018-12-20T05:23:03.255Z,101171.81
2018-12-20T05:25:31.678Z,101178.98
2018-12-20T05:28:00.307Z,101180.98
2018-12-20T05:30:28.523Z,101180.96
2018-12-20T05:32:56.798Z,101183.89
2018-12-20T05:35:25.545Z,101181.12
2018-12-20T05:37:54.012Z,101175.56
2018-12-20T05:40:22.405Z,101180.95
2018-12-20T05:42:50.681Z,101182.59
2018-12-20T05:45:19.036Z,101183.25
2018-12-20T05:47:47.331Z,101188.45
2018-12-20T05:50:15.628Z,101185.53
2018-12-20T05:52:44.031Z,101181.61
2018-12-20T05:55:12.326Z,101175.91
2018-12-20T05:57:40.574Z,101178.36
2018-12-20T06:00:09.552Z,101167.57
2018-12-20T06:02:37.919Z,101183.41
2018-12-20T06:05:06.867Z,101176.05
2018-12-20T06:07:35.189Z,101179.66
2018-12-20T06:10:03.609Z,101178.36
2018-12-20T06:12:32.144Z,101177.53
2018-12-20T06:15:00.462Z,101175.73
2018-12-20T06:17:29.041Z,101178.33
2018-12-20T06:19:57.573Z,101174.41
2018-12-20T06:22:25.925Z,101178.34
2018-12-20T06:24:54.453Z,101170.17
2018-12-20T06:27:22.786Z,101177.84
2018-12-20T06:29:51.012Z,101177.05
2018-12-20T06:32:19.347Z,101184.22
2018-12-20T06:34:47.578Z,101180.62
2018-12-20T06:37:15.817Z,101182.91
2018-12-20T06:39:50.566Z,101188.78
2018-12-20T06:42:18.784Z,101183.40
2018-12-20T06:44:47.048Z,101180.64
2018-12-20T06:47:15.294Z,101187.34
2018-12-20T06:49:43.508Z,101179.02
2018-12-20T06:52:11.763Z,101190.13
2018-12-20T06:54:39.968Z,101193.85
2018-12-20T06:57:08.176Z,101187.81
2018-12-20T06:59:36.409Z,101189.60
2018-12-20T07:02:05.066Z,101190.09
2018-12-20T07:04:33.306Z,101186.98
2018-12-20T07:07:01.580Z,101184.39
2018-12-20T07:09:29.950Z,101194.67
2018-12-20T07:11:58.176Z,101186.84
2018-12-20T07:14:26.420Z,101193.69
2018-12-20T07:16:54.678Z,101181.76
2018-12-20T07:19:22.927Z,101185.52
2018-12-20T07:21:51.215Z,101183.58
2018-12-20T07:24:19.444Z,101186.19
2018-12-20T07:26:47.687Z,101187.66
2018-12-20T07:29:15.942Z,101201.55
2018-12-20T07:31:56.356Z,101193.04
2018-12-20T07:34:24.577Z,101188.46
2018-12-20T07:36:52.798Z,101184.56
2018-12-20T07:39:21.037Z,101184.89
2018-12-20T07:41:49.468Z,101181.45
2018-12-20T07:44:17.809Z,101183.25
2018-12-20T07:46:46.269Z,101182.27
2018-12-20T07:49:14.731Z,101181.95
2018-12-20T07:51:43.030Z,101184.89
2018-12-20T07:54:11.651Z,101185.55
2018-12-20T07:56:40.127Z,101182.91
2018-12-20T07:59:08.524Z,101179.16
2018-12-20T08:01:36.892Z,101182.92
2018-12-20T08:04:05.203Z,101181.44
2018-12-20T08:06:33.578Z,101182.91
2018-12-20T08:09:01.907Z,101188.80
2018-12-20T08:11:30.239Z,101187.16
2018-12-20T08:13:58.480Z,101190.43
2018-12-20T08:16:26.771Z,101195.33
2018-12-20T08:18:55.025Z,101206.76
2018-12-20T08:21:23.224Z,101209.03
2018-12-20T08:23:51.478Z,101198.41
2018-12-20T08:26:19.819Z,101202.69
2018-12-20T08:28:48.190Z,101200.05
2018-12-20T08:31:16.425Z,101199.91
2018-12-20T08:33:44.746Z,101207.09
2018-12-20T08:36:13.011Z,101214.75
2018-12-20T08:38:41.197Z,101205.47
2018-12-20T08:41:09.434Z,101206.27
2018-12-20T08:43:37.717Z,101212.98
2018-12-20T08:46:05.993Z,101210.36
2018-12-20T08:48:34.234Z,101207.07
2018-12-20T08:51:02.576Z,101211.34
2018-12-20T08:53:30.883Z,101213.45
2018-12-20T08:55:59.080Z,101216.08
2018-12-20T08:58:27.330Z,101215.41
2018-12-20T09:00:55.707Z,101212.47
2018-12-20T09:03:23.988Z,101205.12
2018-12-20T09:05:52.334Z,101222.27
2018-12-20T09:08:20.548Z,101212.78
2018-12-20T09:10:48.775Z,101215.56
2018-12-20T09:13:17.029Z,101218.98
2018-12-20T09:15:45.354Z,101219.49
2018-12-20T09:18:13.636Z,101226.02
2018-12-20T09:20:41.916Z,101215.05
2018-12-20T09:23:10.118Z,101220.63
2018-12-20T09:25:38.372Z,101222.09
2018-12-20T09:28:06.674Z,101225.03
2018-12-20T09:30:34.947Z,101219.47
2018-12-20T09:33:03.194Z,101218.50
2018-12-20T09:35:31.530Z,101224.38
2018-12-20T09:38:01.048Z,101224.71
2018-12-20T09:40:29.537Z,101219.80
2018-12-20T09:42:57.770Z,101225.36
2018-12-20T09:45:26.045Z,101224.88
2018-12-20T09:47:58.552Z,101218.98
2018-12-20T09:50:26.950Z,101221.43
2018-12-20T09:52:55.197Z,101214.23
2018-12-20T09:55:23.442Z,101208.00
2018-12-20T09:57:51.689Z,101212.27
2018-12-20T10:00:19.945Z,101214.70
2018-12-20T10:02:48.201Z,101210.16
2018-12-20T10:05:16.796Z,101210.62
2018-12-20T10:07:45.002Z,101209.64
2018-12-20T10:10:13.304Z,101203.41
2018-12-20T10:12:41.564Z,101205.40
2018-12-20T10:15:09.842Z,101197.42
2018-12-20T10:17:38.052Z,101202.16
2018-12-20T10:20:08.969Z,101196.91
2018-12-20T10:22:37.199Z,101194.13
2018-12-20T10:25:05.684Z,101203.39
2018-12-20T10:27:34.064Z,101190.02
2018-12-20T10:30:02.450Z,101200.81
2018-12-20T10:32:30.710Z,101195.58
2018-12-20T10:34:58.944Z,101192.45
2018-12-20T10:37:27.202Z,101184.91
2018-12-20T10:39:55.460Z,101184.09
2018-12-20T10:42:23.702Z,101182.13
2018-12-20T10:44:52.052Z,101180.50
2018-12-20T10:47:29.277Z,101172.34
2018-12-20T10:49:56.033Z,101178.37
2018-12-20T10:52:24.298Z,101174.27
2018-12-20T10:54:52.714Z,101162.86
2018-12-20T10:57:20.938Z,101162.13
2018-12-20T10:59:49.216Z,101165.39
2018-12-20T11:02:22.938Z,101164.08
2018-12-20T11:04:56.543Z,101163.80
2018-12-20T11:07:30.288Z,101162.50
2018-12-20T11:10:03.898Z,101163.14
2018-12-20T11:12:37.602Z,101164.42
2018-12-20T11:15:06.951Z,101153.64
2018-12-20T11:17:37.429Z,101152.33
2018-12-20T11:20:05.866Z,101152.33
2018-12-20T11:22:34.265Z,101152.97
2018-12-20T11:25:02.498Z,101147.09
2018-12-20T11:27:31.006Z,101147.74
2018-12-20T11:29:59.306Z,101146.92
2018-12-20T11:32:27.574Z,101144.31
2018-12-20T11:34:55.783Z,101144.60
2018-12-20T11:37:24.026Z,101142.28
2018-12-20T11:39:59.370Z,101143.78
2018-12-20T11:42:23.038Z,101139.84
2018-12-20T11:44:51.284Z,101138.52
2018-12-20T11:47:24.863Z,101131.17
2018-12-20T11:49:53.094Z,101135.20
2018-12-20T11:52:21.362Z,101127.67
2018-12-20T11:54:49.642Z,101125.06
2018-12-20T11:57:17.890Z,101124.16
2018-12-20T11:59:46.131Z,101128.03
2018-12-20T12:02:14.467Z,101126.72
2018-12-20T12:04:42.727Z,101124.18
2018-12-20T12:07:10.932Z,101117.20
2018-12-20T12:09:39.191Z,101117.84
2018-12-20T12:12:07.482Z,101117.81
2018-12-20T12:14:35.778Z,101115.55
2018-12-20T12:17:04.139Z,101117.17
2018-12-20T12:19:32.346Z,101107.72
2018-12-20T12:22:00.616Z,101112.96
2018-12-20T12:24:28.952Z,101105.92
2018-12-20T12:27:10.149Z,101102.31
2018-12-20T12:29:38.439Z,101102.39
2018-12-20T12:36:03.281Z,101102.70
2018-12-20T12:38:31.595Z,101101.43
2018-12-20T12:40:59.935Z,101103.80
2018-12-20T12:43:28.185Z,101104.51
2018-12-20T12:47:17.830Z,101104.33
2018-12-20T12:49:46.155Z,101102.84
2018-12-20T12:52:14.474Z,101095.87
2018-12-20T12:54:43.200Z,101094.87
2018-12-20T12:57:16.154Z,101100.47
2018-12-20T12:59:44.369Z,101096.22
2018-12-20T13:02:12.620Z,101095.23
2018-12-20T13:04:40.884Z,101098.58
2018-12-20T13:07:09.164Z,101093.06
2018-12-20T13:09:37.389Z,101098.48
2018-12-20T13:12:05.652Z,101085.84
2018-12-20T13:14:34.132Z,101100.84
2018-12-20T13:17:02.373Z,101102.51
2018-12-20T13:19:30.594Z,101098.50
2018-12-20T13:21:58.853Z,101098.48
2018-12-20T13:24:27.134Z,101100.07
2018-12-20T13:26:55.390Z,101098.94
2018-12-20T13:29:23.654Z,101095.06
2018-12-20T13:31:52.004Z,101098.67
2018-12-20T13:34:20.228Z,101089.50
2018-12-20T13:36:48.636Z,101095.55
2018-12-20T13:42:09.847Z,101098.86
2018-12-20T13:44:38.130Z,101098.09
2018-12-20T13:47:06.362Z,101097.41
2018-12-20T13:49:34.569Z,101093.12
2018-12-20T13:52:02.922Z,101093.42
2018-12-20T13:54:31.145Z,101084.63
2018-12-20T13:56:59.365Z,101097.17
2018-12-20T13:59:27.627Z,101094.05
2018-12-20T14:01:55.888Z,101093.97
2018-12-20T14:04:24.245Z,101094.70
2018-12-20T14:06:52.522Z,101101.25
2018-12-20T14:09:21.570Z,101103.37
2018-12-20T14:11:53.222Z,101098.17
2018-12-20T14:14:22.140Z,101104.28
2018-12-20T14:16:51.106Z,101102.20
2018-12-20T14:19:20.049Z,101104.59
2018-12-20T14:21:48.974Z,101106.04
2018-12-20T14:24:17.640Z,101105.84
2018-12-20T14:26:46.002Z,101109.79
2018-12-20T14:29:14.223Z,101111.41
2018-12-20T14:31:42.509Z,101109.16
2018-12-20T14:34:10.782Z,101110.45
2018-12-20T14:36:39.220Z,101107.47
2018-12-20T14:39:14.174Z,101110.97
2018-12-20T14:41:42.401Z,101104.85
2018-12-20T14:44:10.828Z,101110.41
2018-12-20T14:46:39.065Z,101110.14
2018-12-20T14:49:07.352Z,101110.23
2018-12-20T14:54:28.763Z,101107.43
2018-12-20T14:56:57.020Z,101111.31
2018-12-20T14:59:25.594Z,101113.88
2018-12-20T15:01:53.907Z,101108.02
2018-12-20T15:04:22.205Z,101115.92
2018-12-20T15:06:50.619Z,101106.70
2018-12-20T15:09:18.920Z,101111.25
2018-12-20T15:11:47.540Z,101114.19
2018-12-20T15:14:16.163Z,101126.45
2018-12-20T15:16:44.409Z,101118.00
2018-12-20T15:19:12.751Z,101120.12
2018-12-20T15:21:41.221Z,101118.41
2018-12-20T15:24:09.930Z,101122.25
2018-12-20T15:26:38.276Z,101118.86
2018-12-20T15:29:06.609Z,101123.83
2018-12-20T15:31:34.953Z,101130.48
2018-12-20T15:34:03.223Z,101130.02
2018-12-20T15:36:32.067Z,101124.11
2018-12-20T15:39:00.401Z,101120.44
2018-12-20T15:41:28.673Z,101117.41
2018-12-20T15:43:56.938Z,101117.50
2018-12-20T15:46:25.230Z,101122.42
2018-12-20T15:48:57.679Z,101114.27
2018-12-20T15:51:26.752Z,101109.89
2018-12-20T15:53:55.256Z,101109.53
2018-12-20T15:56:23.779Z,101110.89
2018-12-20T15:58:52.030Z,101111.07
2018-12-20T16:01:20.291Z,101117.67
2018-12-20T16:03:48.666Z,101117.31
2018-12-20T16:06:16.957Z,101122.28
2018-12-20T16:08:45.690Z,101125.08
2018-12-20T16:11:14.141Z,101113.14
2018-12-20T16:13:42.422Z,101114.73
2018-12-20T16:16:10.805Z,101113.94
2018-12-20T16:18:39.147Z,101112.27
2018-12-20T16:21:07.446Z,101118.48
2018-12-20T16:23:35.724Z,101110.86
2018-12-20T16:26:04.166Z,101112.04
2018-12-20T16:28:32.471Z,101115.66
2018-12-20T16:31:00.749Z,101114.56
2018-12-20T16:33:29.156Z,101124.51
2018-12-20T16:35:57.535Z,101124.20
2018-12-20T16:38:25.937Z,101126.81
2018-12-20T16:40:54.365Z,101128.13
2018-12-20T16:43:22.651Z,101121.25
2018-12-20T16:48:45.077Z,101136.13
2018-12-20T16:51:14.752Z,101129.12
2018-12-20T16:53:43.058Z,101118.68
2018-12-20T16:56:11.520Z,101122.80
2018-12-20T16:58:39.873Z,101121.89
2018-12-20T17:01:08.193Z,101122.52
2018-12-20T17:06:29.342Z,101119.90
2018-12-20T17:11:50.706Z,101117.33
2018-12-20T17:14:19.164Z,101117.52
2018-12-20T17:16:54.450Z,101118.15
2018-12-20T17:19:22.820Z,101111.36
2018-12-20T17:24:44.736Z,101108.98
2018-12-20T17:27:13.137Z,101111.00
2018-12-20T17:29:42.594Z,101106.40
2018-12-20T17:32:11.302Z,101115.70
2018-12-20T17:34:40.110Z,101112.45
2018-12-20T17:37:09.092Z,101110.05
2018-12-20T17:39:38.382Z,101107.02
2018-12-20T17:42:07.268Z,101106.04
2018-12-20T17:44:35.603Z,101107.61
2018-12-20T17:47:04.152Z,101104.64
2018-12-20T17:49:32.568Z,101104.64
2018-12-20T17:52:01.308Z,101111.19
2018-12-20T17:54:29.791Z,101108.07
2018-12-20T17:56:58.116Z,101105.53
2018-12-20T17:59:26.645Z,101109.97
2018-12-20T18:01:56.017Z,101107.30
2018-12-20T18:04:24.294Z,101111.50
2018-12-20T18:06:52.672Z,101105.22
2018-12-20T18:09:20.928Z,101107.02
2018-12-20T18:11:49.195Z,101104.41
2018-12-20T18:14:18.563Z,101111.10
2018-12-20T18:16:46.856Z,101105.55
2018-12-20T18:19:15.139Z,101093.06
2018-12-20T18:21:43.430Z,101100.16
2018-12-20T18:24:11.699Z,101095.36
2018-12-20T18:26:40.055Z,101103.01
2018-12-20T18:29:08.379Z,101099.75
2018-12-20T18:31:36.710Z,101100.48
2018-12-20T18:34:04.996Z,101095.51
2018-12-20T18:36:33.388Z,101097.13
2018-12-20T18:39:01.688Z,101093.75
2018-12-20T18:41:29.928Z,101097.23
2018-12-20T18:43:58.255Z,101105.31
2018-12-20T18:46:26.507Z,101096.41
2018-12-20T18:48:54.795Z,101098.00
2018-12-20T18:51:23.086Z,101100.21
2018-12-20T18:53:51.507Z,101098.77
2018-12-20T18:56:19.753Z,101100.11
2018-12-20T18:58:48.243Z,101099.67
2018-12-20T19:01:16.549Z,101088.73
2018-12-20T19:03:44.872Z,101092.94
2018-12-20T19:06:14.240Z,101093.91
2018-12-20T19:08:42.657Z,101086.91
2018-12-20T19:11:31.055Z,101094.77
2018-12-20T19:13:59.338Z,101080.97
2018-12-20T19:16:27.544Z,101079.36
2018-12-20T19:18:55.779Z,101078.30
2018-12-20T19:21:24.135Z,101072.62
2018-12-20T19:23:53.385Z,101081.42
2018-12-20T19:26:22.401Z,101074.34
2018-12-20T19:28:50.686Z,101068.20
2018-12-20T19:31:18.975Z,101074.14
2018-12-20T19:33:47.285Z,101069.23
2018-12-20T19:36:15.567Z,101069.11
2018-12-20T19:38:44.181Z,101069.29
2018-12-20T19:41:12.600Z,101071.95
2018-12-20T19:43:40.982Z,101076.02
2018-12-20T19:46:09.309Z,101071.36
2018-12-20T19:48:37.661Z,101069.98
2018-12-20T19:51:05.999Z,101069.62
2018-12-20T19:53:34.376Z,101064.52
2018-12-20T19:56:02.703Z,101073.65
2018-12-20T19:58:31.068Z,101066.01
2018-12-20T20:00:59.412Z,101070.08
2018-12-20T20:03:34.063Z,101066.88
2018-12-20T20:06:02.391Z,101063.31
2018-12-20T20:08:30.714Z,101061.55
2018-12-20T20:10:59.007Z,101061.91
2018-12-20T20:16:20.496Z,101060.31
2018-12-20T20:21:41.792Z,101058.05
2018-12-20T20:24:10.132Z,101053.33
2018-12-20T20:29:31.463Z,101059.81
2018-12-20T20:31:59.842Z,101047.39
2018-12-20T20:34:28.109Z,101049.84
2018-12-20T20:36:56.518Z,101048.38
2018-12-20T20:39:43.362Z,101040.59
2018-12-20T20:42:11.610Z,101046.52
2018-12-20T20:44:39.936Z,101048.82
2018-12-20T20:47:08.387Z,101046.20
2018-12-20T20:49:36.796Z,101045.28
2018-12-20T20:52:05.129Z,101045.42
2018-12-20T20:54:33.530Z,101036.30
2018-12-20T20:57:01.801Z,101048.09
2018-12-20T20:59:30.243Z,101042.03
2018-12-20T21:01:58.571Z,101042.34
2018-12-20T21:04:26.898Z,101049.98
2018-12-20T21:06:55.288Z,101044.42
2018-12-20T21:12:22.844Z,101035.84
2018-12-20T21:14:52.370Z,101032.09
2018-12-20T21:17:17.832Z,101032.33
2018-12-20T21:19:46.197Z,101024.91
2018-12-20T21:22:14.469Z,101031.73
2018-12-20T21:24:42.868Z,101028.43
2018-12-20T21:27:11.438Z,101032.36
2018-12-20T21:29:39.841Z,101027.04
2018-12-20T21:32:08.223Z,101026.36
2018-12-20T21:34:36.749Z,101028.16
2018-12-20T21:37:05.168Z,101023.55
2018-12-20T21:39:33.536Z,101028.11
2018-12-20T21:42:01.821Z,101021.93
2018-12-20T21:44:30.135Z,101021.05
2018-12-20T21:46:58.449Z,101023.16
2018-12-20T21:49:26.773Z,101018.12
2018-12-20T21:51:55.038Z,101023.11
2018-12-20T21:54:23.307Z,101015.80
2018-12-20T21:59:44.188Z,101021.11
2018-12-20T22:05:05.700Z,101017.95
2018-12-20T22:07:33.952Z,101024.00
2018-12-20T22:10:02.255Z,101023.45
2018-12-20T22:12:30.546Z,101016.45
2018-12-20T22:14:58.846Z,101029.74
2018-12-20T22:17:27.235Z,101021.25
2018-12-20T22:19:58.683Z,101022.73
2018-12-20T22:22:25.960Z,101021.88
2018-12-20T22:24:54.227Z,101026.98
2018-12-20T22:27:22.595Z,101021.83
2018-12-20T22:29:51.098Z,101016.77
2018-12-20T22:32:19.427Z,101018.58
2018-12-20T22:34:47.765Z,101017.50
2018-12-20T22:37:16.172Z,101011.95
2018-12-20T22:39:44.467Z,101010.71
2018-12-20T22:42:12.728Z,101012.89
2018-12-20T22:44:40.983Z,101009.90
2018-12-20T22:47:09.281Z,101002.33
2018-12-20T22:49:37.618Z,101005.10
2018-12-20T22:52:05.815Z,101003.34
2018-12-20T22:54:34.181Z,100998.39
2018-12-20T22:57:02.476Z,101002.27
2018-12-20T22:59:30.780Z,100997.90
2018-12-20T23:01:59.163Z,100996.53
2018-12-20T23:04:27.428Z,100998.39
2018-12-20T23:06:55.732Z,100996.09
2018-12-20T23:09:24.086Z,100992.73
2018-12-20T23:11:52.375Z,100990.38
2018-12-20T23:14:20.761Z,100995.30
2018-12-20T23:16:53.657Z,100987.92
2018-12-20T23:19:19.817Z,100987.54
2018-12-20T23:21:48.192Z,100988.06
2018-12-20T23:24:16.512Z,100989.11
2018-12-20T23:26:44.856Z,100979.56
2018-12-20T23:29:13.159Z,100975.44
2018-12-20T23:31:42.039Z,100981.43
2018-12-20T23:34:10.394Z,100978.12
2018-12-20T23:36:38.624Z,100984.73
2018-12-20T23:39:08.886Z,100982.50
2018-12-20T23:41:37.139Z,100974.38
2018-12-20T23:44:05.462Z,100967.38
2018-12-20T23:46:33.742Z,100963.63
2018-12-20T23:49:02.019Z,100954.72
2018-12-20T23:51:30.286Z,100955.46
2018-12-20T23:53:58.573Z,100958.91
2018-12-20T23:56:26.908Z,100956.22
2018-12-20T23:58:55.137Z,100957.09
